Terminal Aerodrome Forecast
Issued by NWS Charleston, WV

Current Version | Previous Version | Text Only | Print | Product List | Glossary Off
Versions: 1 2 3 4 5 6 7 8 9 10 11 12 13 14 15 16 17 18 19 20 21 22

871
FTUS41 KRLX 202339
TAFBKW
TAF
KBKW 202339Z 2100/2124 21006KT P6SM VCSH SCT060
     FM211000 24008KT 4SM SHRA VCTS BKN020CB
     FM211200 25008KT 4SM SHRA VCTS BKN010CB
     FM211600 26008KT 4SM SHRA VCTS OVC015CB
     FM212100 28008KT P6SM VCSH OVC015=

USA.gov is the U.S. government's official web portal to all federal, state and local government web resources and services.